Archival Weather

Heathrow

Heathrow, United Kingdom (EGLL)

Report from: Thursday, June 23, 2022 8:20 PM BST
Current time: Tuesday, August 16, 2022 9:02 AM BST

Current weather
Weather history
Weather forecast

Temperature22.0°C (71.6°F)
Dew point14.0°C (57.2°F)
Winds 10 kts (5.1 m/s, 11.5 mph) Vrb
Winds variableWinds variable from South-Southeast (160°) to West-Southwest (250°)
Visibility6.2 mi. (10 km)
Clouds Sky clear
Altimeter29.74 in.Hg (1007 mB)
Relative humidity61 %
Density altitude1,249 ft. (381 m)
Remarks Fully automated report
Corrected report
No clouds detected
No significant changes expected in the next two hours
Flight conditions Visual Meteorological Conditions
Raw dataCOR EGLL 231920Z AUTO 19010KT 160V250 9999 NCD 22/14 Q1007 NOSIG
An error has occurred. This application may no longer respond until reloaded. Reload 🗙